| time (UTC) | temp F | wind direction | speed MPH | gust MPH | rain 1hr in | rain 24hr in | rain mn in | humidity % | barometer mb |
| 20260509013002 | 60 | 135 | 0.0 | 1.0 | 0.00 | 0.00 | 0.00 | 65 | 1008.9 |
| 20260509012002 | 61 | 0.0 | 1.0 | 0.00 | 0.00 | 0.00 | 61 | 1008.9 | |
| 20260509011002 | 61 | 180 | 0.0 | 2.0 | 0.00 | 0.00 | 0.00 | 65 | 1008.9 |
| 20260509010002 | 61 | 180 | 0.0 | 2.0 | 0.00 | 0.00 | 0.00 | 62 | 1008.9 |
| 20260509005002 | 62 | 180 | 0.0 | 2.0 | 0.00 | 0.00 | 0.00 | 57 | 1008.8 |
| 20260509004002 | 62 | 0.0 | 2.0 | 0.00 | 0.00 | 0.00 | 57 | 1008.8 | |
| 20260509003002 | 63 | 270 | 0.0 | 2.0 | 0.00 | 0.00 | 0.00 | 56 | 1008.7 |
| 20260509002002 | 63 | 180 | 0.0 | 2.0 | 0.00 | 0.00 | 0.00 | 54 | 1008.7 |
| 20260509001003 | 64 | 182 | 0.0 | 2.0 | 0.00 | 0.00 | 0.00 | 54 | 1008.6 |
| 20260509000003 | 64 | 174 | 0.0 | 3.0 | 0.00 | 0.00 | 0.00 | 51 | 1008.8 |
| 20260508235003 | 64 | 187 | 0.0 | 2.0 | 0.00 | 0.00 | 0.00 | 53 | 1008.6 |
| 20260508234003 | 65 | 180 | 0.0 | 2.0 | 0.00 | 0.00 | 0.00 | 52 | 1008.6 |
| 20260508233003 | 66 | 176 | 0.0 | 3.0 | 0.00 | 0.00 | 0.00 | 51 | 1008.6 |
| 20260508232002 | 67 | 141 | 0.0 | 3.0 | 0.00 | 0.00 | 0.00 | 51 | 1008.6 |
| 20260508231002 | 67 | 148 | 0.0 | 3.0 | 0.00 | 0.00 | 0.00 | 50 | 1008.7 |
| 20260508230002 | 68 | 135 | 0.0 | 5.0 | 0.00 | 0.00 | 0.00 | 46 | 1008.4 |
| 20260508225002 | 69 | 160 | 0.0 | 4.0 | 0.00 | 0.00 | 0.00 | 50 | 1008.4 |
| 20260508224002 | 69 | 191 | 0.0 | 2.0 | 0.00 | 0.00 | 0.00 | 48 | 1008.4 |
| 20260508223002 | 70 | 132 | 0.0 | 4.0 | 0.00 | 0.00 | 0.00 | 47 | 1008.2 |
| 20260508222002 | 70 | 148 | 0.0 | 4.0 | 0.00 | 0.00 | 0.00 | 47 | 1008.2 |
| 20260508221002 | 71 | 6 | 0.0 | 3.0 | 0.00 | 0.00 | 0.00 | 42 | 1008.2 |
| 20260508220002 | 72 | 88 | 0.0 | 3.0 | 0.00 | 0.00 | 0.00 | 41 | 1008.1 |
| 20260508215002 | 71 | 155 | 0.0 | 6.0 | 0.00 | 0.00 | 0.00 | 41 | 1008.2 |
| 20260508214002 | 72 | 98 | 0.0 | 4.0 | 0.00 | 0.00 | 0.00 | 42 | 1008.2 |
| 20260508213003 | 73 | 75 | 0.0 | 7.0 | 0.00 | 0.00 | 0.00 | 37 | 1008.1 |
| 20260508212003 | 73 | 198 | 0.0 | 7.0 | 0.00 | 0.00 | 0.00 | 37 | 1008.3 |
| 20260508211003 | 73 | 255 | 0.0 | 4.0 | 0.00 | 0.00 | 0.00 | 40 | 1008.3 |
| 20260508210003 | 74 | 109 | 0.0 | 5.0 | 0.00 | 0.00 | 0.00 | 38 | 1008.4 |
| 20260508205002 | 74 | 104 | 0.0 | 7.0 | 0.00 | 0.00 | 0.00 | 35 | 1008.6 |
| 20260508204002 | 74 | 278 | 0.0 | 6.0 | 0.00 | 0.00 | 0.00 | 35 | 1008.8 |
| 20260508203002 | 73 | 32 | 0.0 | 5.0 | 0.00 | 0.00 | 0.00 | 39 | 1009.1 |
| 20260508202002 | 71 | 277 | 0.0 | 7.0 | 0.00 | 0.00 | 0.00 | 42 | 1009.4 |
| 20260508201002 | 73 | 299 | 0.0 | 5.0 | 0.00 | 0.00 | 0.00 | 40 | 1009.5 |
| 20260508200002 | 73 | 29 | 0.0 | 7.0 | 0.00 | 0.00 | 0.00 | 37 | 1009.6 |
| 20260508195002 | 71 | 355 | 0.0 | 5.0 | 0.00 | 0.00 | 0.00 | 41 | 1009.7 |
| 20260508194002 | 71 | 285 | 0.0 | 6.0 | 0.00 | 0.00 | 0.00 | 43 | 1009.9 |
| 20260508193002 | 71 | 45 | 0.0 | 7.0 | 0.00 | 0.00 | 0.00 | 38 | 1010.1 |
| 20260508192002 | 74 | 19 | 0.0 | 6.0 | 0.00 | 0.00 | 0.00 | 37 | 1009.9 |
| 20260508191002 | 74 | 30 | 0.0 | 6.0 | 0.00 | 0.00 | 0.00 | 35 | 1009.8 |
| 20260508190002 | 76 | 315 | 0.0 | 8.0 | 0.00 | 0.00 | 0.00 | 35 | 1009.9 |
| 20260508185003 | 76 | 351 | 0.0 | 9.0 | 0.00 | 0.00 | 0.00 | 36 | 1010.1 |
| 20260508184003 | 75 | 84 | 0.0 | 7.0 | 0.00 | 0.00 | 0.00 | 34 | 1010.4 |
| 20260508183003 | 76 | 301 | 0.0 | 7.0 | 0.00 | 0.00 | 0.00 | 38 | 1010.6 |
| 20260508182003 | 74 | 331 | 0.0 | 8.0 | 0.00 | 0.00 | 0.00 | 39 | 1010.9 |
| 20260508181003 | 71 | 299 | 0.0 | 7.0 | 0.00 | 0.00 | 0.00 | 40 | 1011.2 |
| 20260508180002 | 72 | 306 | 0.0 | 6.0 | 0.00 | 0.00 | 0.00 | 41 | 1011.1 |
| 20260508175002 | 75 | 215 | 0.0 | 7.0 | 0.00 | 0.00 | 0.00 | 36 | 1011.3 |
| 20260508174002 | 73 | 360 | 0.0 | 10.0 | 0.00 | 0.00 | 0.00 | 39 | 1011.6 |
| 20260508173002 | 74 | 308 | 0.0 | 9.0 | 0.00 | 0.00 | 0.00 | 39 | 1011.5 |
| 20260508172002 | 74 | 311 | 0.0 | 6.0 | 0.00 | 0.00 | 0.00 | 41 | 1011.9 |
| 20260508171002 | 73 | 351 | 0.0 | 5.0 | 0.00 | 0.00 | 0.00 | 41 | 1011.9 |
| 20260508170002 | 73 | 296 | 0.0 | 5.0 | 0.00 | 0.00 | 0.00 | 42 | 1012.3 |
| 20260508165002 | 72 | 44 | 0.0 | 7.0 | 0.00 | 0.00 | 0.00 | 41 | 1012.6 |
| 20260508164002 | 71 | 10 | 0.0 | 8.0 | 0.00 | 0.00 | 0.00 | 39 | 1012.8 |
| 20260508163002 | 71 | 324 | 0.0 | 5.0 | 0.00 | 0.00 | 0.00 | 44 | 1013.0 |
| 20260508162002 | 70 | 317 | 0.0 | 6.0 | 0.00 | 0.00 | 0.00 | 43 | 1013.1 |
| 20260508161003 | 71 | 356 | 0.0 | 5.0 | 0.00 | 0.00 | 0.00 | 44 | 1013.2 |
| 20260508160003 | 71 | 309 | 0.0 | 7.0 | 0.00 | 0.00 | 0.00 | 43 | 1013.2 |
| 20260508155003 | 71 | 283 | 0.0 | 5.0 | 0.00 | 0.00 | 0.00 | 46 | 1013.3 |
| 20260508154003 | 70 | 307 | 0.0 | 5.0 | 0.00 | 0.00 | 0.00 | 43 | 1013.5 |
| 20260508153003 | 70 | 360 | 0.0 | 11.0 | 0.00 | 0.00 | 0.00 | 43 | 1013.8 |
| 20260508152002 | 70 | 27 | 0.0 | 5.0 | 0.00 | 0.00 | 0.00 | 43 | 1013.9 |
| 20260508151002 | 68 | 193 | 0.0 | 6.0 | 0.00 | 0.00 | 0.00 | 46 | 1013.9 |
| 20260508150003 | 68 | 71 | 0.0 | 6.0 | 0.00 | 0.00 | 0.00 | 45 | 1014.1 |
| 20260508145002 | 68 | 300 | 0.0 | 8.0 | 0.00 | 0.00 | 0.00 | 48 | 1014.1 |
| 20260508144002 | 67 | 334 | 0.0 | 5.0 | 0.00 | 0.00 | 0.00 | 47 | 1014.2 |
| 20260508143002 | 66 | 336 | 0.0 | 5.0 | 0.00 | 0.00 | 0.00 | 47 | 1014.4 |
| 20260508142002 | 64 | 13 | 0.0 | 4.0 | 0.00 | 0.00 | 0.00 | 52 | 1014.5 |
| 20260508141002 | 63 | 290 | 0.0 | 5.0 | 0.00 | 0.00 | 0.00 | 55 | 1014.5 |
| 20260508140002 | 60 | 307 | 0.0 | 4.0 | 0.00 | 0.00 | 0.00 | 56 | 1014.6 |
| 20260508135002 | 58 | 293 | 0.0 | 4.0 | 0.00 | 0.00 | 0.00 | 63 | 1014.7 |
| 20260508134002 | 55 | 263 | 0.0 | 5.0 | 0.00 | 0.00 | 0.00 | 74 | 1015.0 |
| 20260508133002 | 53 | 96 | 0.0 | 3.0 | 0.00 | 0.00 | 0.00 | 74 | 1015.1 |
| 20260508132003 | 51 | 253 | 0.0 | 2.0 | 0.00 | 0.00 | 0.00 | 88 | 1015.1 |
| 20260508131003 | 50 | 109 | 0.0 | 3.0 | 0.00 | 0.00 | 0.00 | 93 | 1015.3 |
| 20260508130003 | 48 | 326 | 0.0 | 2.0 | 0.00 | 0.00 | 0.00 | 99 | 1015.3 |
| 20260508125003 | 47 | 86 | 0.0 | 2.0 | 0.00 | 0.00 | 0.00 | 99 | 1015.3 |
| 20260508124003 | 46 | 26 | 0.0 | 2.0 | 0.00 | 0.00 | 0.00 | 99 | 1015.3 |
| 20260508123002 | 44 | 45 | 0.0 | 2.0 | 0.00 | 0.00 | 0.00 | 99 | 1015.3 |
| 20260508122002 | 43 | 0.0 | 0.0 | 0.00 | 0.00 | 0.00 | 99 | 1015.3 | |
| 20260508121002 | 42 | 0.0 | 0.0 | 0.00 | 0.00 | 0.00 | 99 | 1015.3 | |
| 20260508120002 | 41 | 45 | 0.0 | 2.0 | 0.00 | 0.00 | 0.00 | 99 | 1015.4 |
| 20260508115002 | 41 | 225 | 0.0 | 2.0 | 0.00 | 0.00 | 0.00 | 99 | 1015.2 |
| 20260508114002 | 40 | 162 | 0.0 | 2.0 | 0.00 | 0.00 | 0.00 | 99 | 1015.2 |
| 20260508113002 | 39 | 0.0 | 0.0 | 0.00 | 0.00 | 0.00 | 99 | 1015.1 | |
| 20260508112002 | 39 | 0.0 | 0.0 | 0.00 | 0.00 | 0.00 | 99 | 1015.1 | |
| 20260508111002 | 38 | 0.0 | 0.0 | 0.00 | 0.00 | 0.00 | 99 | 1015.0 | |
| 20260508110002 | 38 | 0.0 | 0.0 | 0.00 | 0.00 | 0.00 | 99 | 1015.0 | |
| 20260508105002 | 38 | 0.0 | 0.0 | 0.00 | 0.00 | 0.00 | 99 | 1015.0 | |
| 20260508104003 | 38 | 0.0 | 0.0 | 0.00 | 0.00 | 0.00 | 99 | 1015.0 | |
| 20260508103003 | 38 | 158 | 0.0 | 1.0 | 0.00 | 0.00 | 0.00 | 99 | 1015.0 |
| 20260508102003 | 38 | 158 | 0.0 | 2.0 | 0.00 | 0.00 | 0.00 | 99 | 1015.0 |
| 20260508101003 | 38 | 0.0 | 0.0 | 0.00 | 0.00 | 0.00 | 99 | 1014.9 | |
| 20260508100002 | 39 | 158 | 0.0 | 1.0 | 0.00 | 0.00 | 0.00 | 99 | 1015.1 |
| 20260508095002 | 39 | 0.0 | 0.0 | 0.00 | 0.00 | 0.00 | 99 | 1015.1 | |
| 20260508094003 | 38 | 0.0 | 0.0 | 0.00 | 0.00 | 0.00 | 99 | 1015.0 | |
| 20260508093002 | 38 | 0.0 | 0.0 | 0.00 | 0.00 | 0.00 | 99 | 1015.0 | |
| 20260508092002 | 38 | 0.0 | 0.0 | 0.00 | 0.00 | 0.00 | 99 | 1015.0 | |
| 20260508091002 | 38 | 0.0 | 0.0 | 0.00 | 0.00 | 0.00 | 99 | 1015.0 | |
| 20260508090002 | 38 | 0.0 | 0.0 | 0.00 | 0.00 | 0.00 | 99 | 1015.0 | |
| 20260508085002 | 38 | 0.0 | 0.0 | 0.00 | 0.00 | 0.00 | 99 | 1015.0 | |
| 20260508084002 | 38 | 0.0 | 0.0 | 0.00 | 0.00 | 0.00 | 99 | 1015.0 | |
| 20260508083002 | 37 | 0.0 | 0.0 | 0.00 | 0.00 | 0.00 | 99 | 1015.0 | |
| 20260508082002 | 37 | 0.0 | 0.0 | 0.00 | 0.00 | 0.00 | 99 | 1015.0 | |
| 20260508081002 | 38 | 0.0 | 0.0 | 0.00 | 0.00 | 0.00 | 99 | 1015.0 | |
| 20260508080003 | 38 | 0.0 | 0.0 | 0.00 | 0.00 | 0.00 | 99 | 1015.0 | |
| 20260508075003 | 38 | 0.0 | 0.0 | 0.00 | 0.00 | 0.00 | 99 | 1015.0 | |
| 20260508074003 | 38 | 0.0 | 0.0 | 0.00 | 0.00 | 0.00 | 99 | 1015.0 | |
| 20260508073003 | 38 | 0.0 | 0.0 | 0.00 | 0.00 | 0.00 | 99 | 1014.9 | |
| 20260508072002 | 38 | 0.0 | 0.0 | 0.00 | 0.00 | 0.00 | 99 | 1015.0 | |
| 20260508071002 | 38 | 0.0 | 0.0 | 0.00 | 0.00 | 0.00 | 99 | 1015.0 | |
| 20260508070002 | 38 | 0.0 | 0.0 | 0.00 | 0.00 | 0.00 | 99 | 1015.3 | |
| 20260508065002 | 38 | 0.0 | 0.0 | 0.00 | 0.00 | 0.00 | 99 | 1015.4 | |
| 20260508064002 | 39 | 0.0 | 0.0 | 0.00 | 0.00 | 0.00 | 99 | 1015.5 | |
| 20260508063002 | 39 | 0.0 | 0.0 | 0.00 | 0.00 | 0.00 | 99 | 1015.6 | |
| 20260508062002 | 39 | 0.0 | 0.0 | 0.00 | 0.00 | 0.00 | 99 | 1015.6 | |
| 20260508061002 | 39 | 0.0 | 0.0 | 0.00 | 0.00 | 0.00 | 99 | 1015.8 | |
| 20260508060002 | 39 | 0.0 | 0.0 | 0.00 | 0.00 | 0.00 | 99 | 1015.8 | |
| 20260508055002 | 39 | 0.0 | 0.0 | 0.00 | 0.00 | 0.00 | 99 | 1015.7 | |
| 20260508054002 | 40 | 0.0 | 0.0 | 0.00 | 0.00 | 0.00 | 99 | 1015.6 | |
| 20260508053002 | 40 | 0.0 | 0.0 | 0.00 | 0.00 | 0.00 | 99 | 1015.6 | |
| 20260508052002 | 40 | 0.0 | 0.0 | 0.00 | 0.00 | 0.00 | 99 | 1015.6 | |
| 20260508051003 | 40 | 176 | 0.0 | 2.0 | 0.00 | 0.00 | 0.00 | 99 | 1015.6 |
| 20260508050003 | 40 | 211 | 0.0 | 2.0 | 0.00 | 0.00 | 0.00 | 99 | 1015.6 |
| 20260508045003 | 40 | 158 | 0.0 | 2.0 | 0.00 | 0.00 | 0.00 | 99 | 1015.6 |
| 20260508044003 | 40 | 0.0 | 0.0 | 0.00 | 0.00 | 0.00 | 99 | 1015.8 | |
| 20260508043002 | 40 | 0.0 | 0.0 | 0.00 | 0.00 | 0.00 | 99 | 1015.7 | |
| 20260508042002 | 41 | 0.0 | 0.0 | 0.00 | 0.00 | 0.00 | 99 | 1015.6 | |
| 20260508041002 | 41 | 0.0 | 0.0 | 0.00 | 0.00 | 0.00 | 99 | 1015.6 | |
| 20260508040002 | 41 | 0.0 | 0.0 | 0.00 | 0.00 | 0.00 | 99 | 1015.6 | |
| 20260508035002 | 41 | 0.0 | 0.0 | 0.00 | 0.00 | 0.00 | 99 | 1015.7 | |
| 20260508034002 | 41 | 0.0 | 0.0 | 0.00 | 0.00 | 0.00 | 98 | 1015.6 | |
| 20260508033002 | 42 | 202 | 0.0 | 2.0 | 0.00 | 0.00 | 0.00 | 98 | 1015.6 |
| 20260508032002 | 42 | 0.0 | 0.0 | 0.00 | 0.00 | 0.00 | 97 | 1015.5 | |
| 20260508031002 | 42 | 0.0 | 0.0 | 0.00 | 0.00 | 0.00 | 97 | 1015.5 | |
| 20260508030002 | 42 | 0.0 | 0.0 | 0.00 | 0.00 | 0.00 | 95 | 1015.5 | |
| 20260508025002 | 42 | 0.0 | 0.0 | 0.00 | 0.00 | 0.00 | 94 | 1015.3 | |
| 20260508024002 | 43 | 0.0 | 0.0 | 0.00 | 0.00 | 0.00 | 92 | 1015.3 | |
| 20260508023003 | 43 | 0.0 | 0.0 | 0.00 | 0.00 | 0.00 | 92 | 1015.0 | |
| 20260508022003 | 44 | 0.0 | 0.0 | 0.00 | 0.00 | 0.00 | 86 | 1015.0 | |
| 20260508021003 | 44 | 0.0 | 0.0 | 0.00 | 0.00 | 0.00 | 90 | 1015.1 | |
| 20260508020003 | 45 | 0.0 | 0.0 | 0.00 | 0.00 | 0.00 | 86 | 1014.9 | |
| 20260508015002 | 46 | 180 | 0.0 | 1.0 | 0.00 | 0.00 | 0.00 | 80 | 1014.9 |
| 20260508014002 | 46 | 180 | 0.0 | 2.0 | 0.00 | 0.00 | 0.00 | 78 | 1014.7 |